createdAt,value
2018-07-30T00:01:01.369Z,8.1
2018-07-30T00:06:01.244Z,8.5
2018-07-30T00:11:01.339Z,8.6
2018-07-30T00:16:01.242Z,9.0
2018-07-30T00:21:01.333Z,8.8
2018-07-30T00:26:11.317Z,8.7
2018-07-30T00:31:01.354Z,9.1
2018-07-30T00:36:01.275Z,9.7
2018-07-30T00:51:06.316Z,10.7
2018-07-30T00:56:01.285Z,10.9
2018-07-30T01:01:01.348Z,10.8
2018-07-30T01:06:01.286Z,10.9
2018-07-30T01:11:01.355Z,11.0
2018-07-30T01:16:01.290Z,11.0
2018-07-30T01:21:01.444Z,10.8
2018-07-30T01:32:01.302Z,10.5
2018-07-30T01:37:01.248Z,10.5
2018-07-30T01:42:01.368Z,10.9
2018-07-30T01:47:01.252Z,11.0
2018-07-30T01:52:01.278Z,11.6
2018-07-30T01:57:07.276Z,12.2
2018-07-30T02:07:06.472Z,12.3
2018-07-30T02:12:01.300Z,12.2
2018-07-30T02:17:01.245Z,12.1
2018-07-30T02:22:01.375Z,12.3
2018-07-30T02:27:01.252Z,12.6
2018-07-30T02:37:01.376Z,13.3
2018-07-30T02:42:01.312Z,13.2
2018-07-30T02:47:01.252Z,13.0
2018-07-30T02:53:01.301Z,13.3
2018-07-30T02:58:01.239Z,14.0
2018-07-30T03:03:01.369Z,14.0
2018-07-30T03:08:01.245Z,14.2
2018-07-30T03:13:01.376Z,15.0
2018-07-30T03:18:01.245Z,15.2
2018-07-30T03:23:01.313Z,15.0
2018-07-30T03:28:01.260Z,15.5
2018-07-30T03:38:01.318Z,15.6
2018-07-30T03:43:01.385Z,15.7
2018-07-30T03:48:01.407Z,16.0
2018-07-30T03:53:01.315Z,16.4
2018-07-30T03:58:01.413Z,16.7
2018-07-30T04:03:01.399Z,17.6
2018-07-30T04:08:01.535Z,17.3
2018-07-30T04:13:01.377Z,17.2
2018-07-30T04:18:01.250Z,16.6
2018-07-30T04:23:01.315Z,16.7
2018-07-30T04:28:01.252Z,16.9
2018-07-30T04:34:01.309Z,17.6
2018-07-30T04:39:01.241Z,18.7
2018-07-30T04:49:01.250Z,18.6
2018-07-30T04:54:01.251Z,18.1
2018-07-30T05:04:01.315Z,17.6
2018-07-30T05:09:01.383Z,18.4
2018-07-30T05:15:06.255Z,19.1
2018-07-30T05:20:06.381Z,20.0
2018-07-30T05:25:06.254Z,20.2
2018-07-30T05:30:06.256Z,20.1
2018-07-30T05:35:06.253Z,20.0
2018-07-30T05:40:06.256Z,19.9
2018-07-30T05:45:01.263Z,19.5
2018-07-30T05:50:01.450Z,19.9
2018-07-30T05:55:06.281Z,20.0
2018-07-30T06:01:01.374Z,20.0
2018-07-30T06:06:01.234Z,20.0
2018-07-30T06:11:01.310Z,20.1
2018-07-30T06:16:01.250Z,20.5
2018-07-30T06:21:01.591Z,20.6
2018-07-30T06:26:01.255Z,20.6
2018-07-30T06:41:01.321Z,20.0
2018-07-30T06:51:01.301Z,20.0
2018-07-30T07:01:01.328Z,20.7
2018-07-30T07:06:01.248Z,21.2
2018-07-30T07:11:01.765Z,22.0
2018-07-30T07:16:01.249Z,23.0
2018-07-30T07:21:01.313Z,22.7
2018-07-30T07:26:01.263Z,22.9
2018-07-30T07:31:01.317Z,22.4
2018-07-30T07:36:01.240Z,20.8
2018-07-30T07:41:01.375Z,20.4
2018-07-30T07:46:01.348Z,19.2
2018-07-30T07:51:01.930Z,17.6
2018-07-30T07:56:01.244Z,17.0
2018-07-30T08:01:01.314Z,16.6
2018-07-30T08:06:01.244Z,15.1
2018-07-30T08:11:01.547Z,15.0
2018-07-30T08:17:01.215Z,16.3
2018-07-30T08:22:01.367Z,16.3
2018-07-30T08:27:01.241Z,17.2
2018-07-30T08:32:01.309Z,18.2
2018-07-30T08:37:01.242Z,18.5
2018-07-30T08:42:01.310Z,17.8
2018-07-30T08:47:01.243Z,17.4
2018-07-30T08:52:01.381Z,17.2
2018-07-30T08:58:01.230Z,16.4
2018-07-30T09:03:01.378Z,16.2
2018-07-30T09:08:01.251Z,16.1
2018-07-30T09:13:01.308Z,15.8
2018-07-30T09:18:01.242Z,14.9
2018-07-30T09:23:01.308Z,14.6
2018-07-30T09:28:01.244Z,14.1
2018-07-30T09:33:01.784Z,13.4
2018-07-30T09:38:01.242Z,13.0
2018-07-30T09:43:01.371Z,12.6
2018-07-30T09:48:01.246Z,12.5
2018-07-30T09:53:01.304Z,12.2
2018-07-30T09:58:01.258Z,11.9
2018-07-30T10:03:06.319Z,11.4
2018-07-30T10:08:06.252Z,11.2
2018-07-30T10:14:01.376Z,11.0
2018-07-30T10:19:01.301Z,10.8
2018-07-30T10:24:01.243Z,11.1
2018-07-30T10:29:01.306Z,11.0
2018-07-30T10:34:01.244Z,10.6
2018-07-30T10:39:01.377Z,9.7
2018-07-30T10:44:01.282Z,9.7
2018-07-30T10:49:01.352Z,9.0
2018-07-30T10:54:01.242Z,9.2
2018-07-30T11:04:01.373Z,9.1
2018-07-30T11:09:01.889Z,8.7
2018-07-30T11:24:06.321Z,8.7
2018-07-30T11:29:01.316Z,8.8
2018-07-30T11:34:01.263Z,9.8
2018-07-30T11:39:01.391Z,10.8
2018-07-30T11:55:00.995Z,12.2
2018-07-30T12:00:01.038Z,12.6
2018-07-30T12:05:00.926Z,13.5
2018-07-30T12:10:00.999Z,13.4
2018-07-30T12:15:00.903Z,13.3
2018-07-30T12:20:00.986Z,14.0
2018-07-30T12:25:00.929Z,14.2
2018-07-30T12:30:01.162Z,13.8
2018-07-30T12:35:00.919Z,14.2
2018-07-30T12:40:01.117Z,14.2
2018-07-30T12:45:01.063Z,13.3
2018-07-30T12:50:00.992Z,12.5
2018-07-30T12:55:00.889Z,11.7
2018-07-30T13:00:00.978Z,10.8
2018-07-30T13:05:00.897Z,10.0
2018-07-30T13:10:00.965Z,9.2
2018-07-30T13:15:01.227Z,8.8
2018-07-30T13:20:01.040Z,8.7
2018-07-30T13:25:00.914Z,7.8
2018-07-30T13:30:00.977Z,7.2
2018-07-30T13:35:00.914Z,6.9
2018-07-30T13:40:00.980Z,6.4
2018-07-30T13:45:00.921Z,5.7
2018-07-30T13:50:01.047Z,5.6
2018-07-30T13:55:00.916Z,5.6
2018-07-30T14:00:01.217Z,6.0
2018-07-30T14:05:00.933Z,5.9
2018-07-30T14:10:00.979Z,6.1
2018-07-30T14:15:00.953Z,6.4
2018-07-30T14:20:00.930Z,6.6
2018-07-30T14:25:00.940Z,6.2
2018-07-30T14:30:01.055Z,6.6
2018-07-30T14:35:00.924Z,6.7
2018-07-30T14:40:00.998Z,6.5
2018-07-30T14:45:00.929Z,6.4
2018-07-30T14:50:00.927Z,6.4
2018-07-30T14:55:00.971Z,6.4
2018-07-30T15:00:01.067Z,6.6
2018-07-30T15:05:00.930Z,6.7
2018-07-30T15:15:01.023Z,6.9
2018-07-30T15:20:01.046Z,6.8
2018-07-30T15:25:00.964Z,6.6
2018-07-30T15:30:00.969Z,6.3
2018-07-30T15:35:01.070Z,6.3
2018-07-30T15:40:00.976Z,6.2
2018-07-30T15:45:00.973Z,6.2
2018-07-30T15:55:01.119Z,6.5
2018-07-30T16:00:00.974Z,6.7
2018-07-30T16:15:00.992Z,8.7
2018-07-30T16:20:01.015Z,10.9
2018-07-30T16:25:00.978Z,13.2
2018-07-30T16:30:01.006Z,15.9
2018-07-30T16:35:00.987Z,18.9
2018-07-30T16:40:01.048Z,18.9
2018-07-30T16:45:00.989Z,18.2
2018-07-30T16:50:01.069Z,17.4
2018-07-30T16:55:00.986Z,16.6
2018-07-30T17:00:01.002Z,15.7
2018-07-30T17:05:01.024Z,15.0
2018-07-30T17:10:01.081Z,15.3
2018-07-30T17:15:01.003Z,16.8
2018-07-30T17:20:01.027Z,16.7
2018-07-30T17:25:01.006Z,18.0
2018-07-30T17:30:01.281Z,18.4
2018-07-30T17:35:06.023Z,18.8
2018-07-30T17:40:01.023Z,18.8
2018-07-30T17:45:01.009Z,19.5
2018-07-30T17:50:01.073Z,19.3
2018-07-30T17:55:01.018Z,19.6
2018-07-30T18:00:01.069Z,19.7
2018-07-30T18:05:00.977Z,19.0
2018-07-30T18:15:01.084Z,18.7
2018-07-30T18:20:01.087Z,18.4
2018-07-30T18:25:01.019Z,18.1
2018-07-30T18:30:01.028Z,17.9
2018-07-30T18:35:01.026Z,17.8
2018-07-30T18:40:01.025Z,17.0
2018-07-30T18:45:01.016Z,16.3
2018-07-30T18:50:01.088Z,15.7
2018-07-30T18:55:01.022Z,15.3
2018-07-30T19:00:01.091Z,14.8
2018-07-30T19:05:01.002Z,15.0
2018-07-30T19:10:01.088Z,15.5
2018-07-30T19:15:00.999Z,15.6
2018-07-30T19:20:01.010Z,15.8
2018-07-30T19:25:01.005Z,16.2
2018-07-30T19:30:01.133Z,15.9
2018-07-30T19:35:01.006Z,16.0
2018-07-30T19:40:01.069Z,17.1
2018-07-30T19:45:01.077Z,17.7
2018-07-30T19:50:01.074Z,18.3
2018-07-30T19:55:01.012Z,18.6
2018-07-30T20:00:01.010Z,18.8
2018-07-30T20:15:01.140Z,17.2
2018-07-30T20:20:01.081Z,17.6
2018-07-30T20:25:01.233Z,18.2
2018-07-30T20:30:01.163Z,18.0
2018-07-30T20:35:01.027Z,17.6
2018-07-30T20:40:01.097Z,17.6
2018-07-30T20:45:01.220Z,17.2
2018-07-30T20:50:01.214Z,16.6
2018-07-30T20:55:01.060Z,17.6
2018-07-30T21:00:01.259Z,17.8
2018-07-30T21:05:01.034Z,19.1
2018-07-30T21:10:01.035Z,20.1
2018-07-30T21:15:01.035Z,21.0
2018-07-30T21:20:01.196Z,20.4
2018-07-30T21:25:01.067Z,20.8
2018-07-30T21:30:01.149Z,20.5
2018-07-30T21:40:01.182Z,20.4
2018-07-30T21:45:01.079Z,21.9
2018-07-30T21:50:01.142Z,23.2
2018-07-30T21:55:01.050Z,24.8
2018-07-30T22:00:01.162Z,25.6
2018-07-30T22:05:01.080Z,26.9
2018-07-30T22:10:01.100Z,27.3
2018-07-30T22:15:01.055Z,27.7
2018-07-30T22:20:01.154Z,26.9
2018-07-30T22:25:01.066Z,27.4
2018-07-30T22:30:01.140Z,27.2
2018-07-30T22:35:01.081Z,26.7
2018-07-30T22:45:01.125Z,26.0
2018-07-30T22:50:01.171Z,25.9
2018-07-30T22:55:01.057Z,24.8
2018-07-30T23:00:01.093Z,24.8
2018-07-30T23:05:01.091Z,25.2
2018-07-30T23:10:01.223Z,26.6
2018-07-30T23:15:01.095Z,26.5
2018-07-30T23:20:01.096Z,26.9
2018-07-30T23:25:01.093Z,26.9
2018-07-30T23:30:01.167Z,26.4
2018-07-30T23:35:01.104Z,25.6
2018-07-30T23:40:01.221Z,25.1
2018-07-30T23:45:01.100Z,25.4
2018-07-30T23:50:01.165Z,25.8
2018-07-30T23:55:01.507Z,26.6
